createdAt,value
2023-05-05T00:05:30.641Z,101882.94
2023-05-05T00:12:13.002Z,101882.94
2023-05-05T00:18:55.197Z,101879.41
2023-05-05T00:25:37.995Z,101882.88
2023-05-05T00:32:20.129Z,101883.75
2023-05-05T00:39:02.380Z,101882.00
2023-05-05T00:45:47.717Z,101876.75
2023-05-05T00:52:31.382Z,101871.50
2023-05-05T00:59:13.714Z,101876.78
2023-05-05T01:06:51.308Z,101885.56
2023-05-05T01:14:06.527Z,101882.06
2023-05-05T01:21:29.011Z,101875.09
2023-05-05T01:28:39.201Z,101876.88
2023-05-05T01:35:30.510Z,101878.69
2023-05-05T01:42:15.559Z,101876.97
2023-05-05T01:48:58.765Z,101884.91
2023-05-05T01:55:41.981Z,101885.78
2023-05-05T02:02:26.309Z,101879.66
2023-05-05T02:09:11.921Z,101887.50
2023-05-05T02:15:55.927Z,101876.09
2023-05-05T02:22:38.562Z,101876.03
2023-05-05T02:29:29.638Z,101876.88
2023-05-05T02:36:19.352Z,101869.84
2023-05-05T02:49:57.678Z,101880.25
2023-05-05T02:56:58.777Z,101874.97
2023-05-05T03:04:10.165Z,101875.81
2023-05-05T03:11:07.430Z,101884.53
2023-05-05T03:17:53.856Z,101887.97
2023-05-05T03:24:36.511Z,101902.78
2023-05-05T03:31:23.463Z,101913.19
2023-05-05T03:38:09.904Z,101907.81
2023-05-05T03:44:53.859Z,101926.09
2023-05-05T03:51:39.721Z,101919.91
2023-05-05T03:58:22.835Z,101932.06
2023-05-05T04:05:05.664Z,101931.97
2023-05-05T04:11:48.218Z,101942.47
2023-05-05T04:18:31.279Z,101954.69
2023-05-05T04:25:14.039Z,101958.16
2023-05-05T04:31:56.894Z,101946.78
2023-05-05T04:38:39.737Z,101958.94
2023-05-05T04:45:22.245Z,101966.78
2023-05-05T04:52:05.020Z,101972.03
2023-05-05T04:58:47.357Z,101980.81
2023-05-05T05:05:30.369Z,101979.13
2023-05-05T05:12:12.668Z,101991.44
2023-05-05T05:18:54.915Z,101994.16
2023-05-05T05:25:38.043Z,101996.03
2023-05-05T05:32:20.594Z,102004.03
2023-05-05T05:39:03.918Z,102009.47
2023-05-05T05:45:46.427Z,102013.94
2023-05-05T05:52:28.766Z,102028.09
2023-05-05T05:59:11.826Z,102025.66
2023-05-05T06:05:56.648Z,102029.28
2023-05-05T06:12:38.887Z,102036.44
2023-05-05T06:19:21.542Z,102026.97
2023-05-05T06:26:04.489Z,102038.53
2023-05-05T06:32:46.678Z,102045.78
2023-05-05T06:39:28.936Z,102055.66
2023-05-05T06:46:11.418Z,102054.94
2023-05-05T06:52:53.545Z,102057.69
2023-05-05T06:59:36.496Z,102057.81
2023-05-05T07:06:18.932Z,102046.50
2023-05-05T07:13:01.219Z,102049.25
2023-05-05T07:19:44.239Z,102037.03
2023-05-05T07:26:26.743Z,102047.63
2023-05-05T07:33:08.904Z,102050.34
2023-05-05T07:39:51.118Z,102052.16
2023-05-05T07:46:33.465Z,102048.69
2023-05-05T07:53:15.803Z,102061.03
2023-05-05T07:59:58.047Z,102061.06
2023-05-05T08:06:40.435Z,102073.41
2023-05-05T08:13:23.312Z,102070.75
2023-05-05T08:20:06.424Z,102079.53
2023-05-05T08:26:49.191Z,102077.72
2023-05-05T08:33:31.890Z,102067.06
2023-05-05T08:40:14.839Z,102075.81
2023-05-05T08:46:58.134Z,102080.13
2023-05-05T08:53:54.398Z,102067.66
2023-05-05T09:00:37.058Z,102075.34
2023-05-05T09:07:19.598Z,102073.28
2023-05-05T09:14:01.968Z,102073.09
2023-05-05T09:20:44.090Z,102066.66
2023-05-05T09:27:27.071Z,102069.13
2023-05-05T09:34:16.842Z,102069.75
2023-05-05T09:40:59.085Z,102087.28
2023-05-05T09:47:41.936Z,102095.06
2023-05-05T09:54:32.761Z,102092.16
2023-05-05T10:01:23.736Z,102084.78
2023-05-05T10:08:16.220Z,102090.63
2023-05-05T10:15:02.745Z,102090.56
2023-05-05T10:21:56.842Z,102090.56
2023-05-05T10:28:48.373Z,102089.69
2023-05-05T10:35:33.247Z,102098.72
2023-05-05T10:42:16.525Z,102088.00
2023-05-05T10:49:35.625Z,102093.91
2023-05-05T10:56:32.554Z,102083.13
2023-05-05T11:03:17.928Z,102072.31
2023-05-05T11:10:02.639Z,102069.91
2023-05-05T11:16:47.725Z,102069.25
2023-05-05T11:23:31.231Z,102063.91
2023-05-05T11:30:15.171Z,102063.84
2023-05-05T11:37:02.609Z,102065.72
2023-05-05T11:43:45.407Z,102060.47
2023-05-05T11:50:28.013Z,102056.72
2023-05-05T11:57:10.221Z,102062.84
2023-05-05T12:03:52.781Z,102059.09
2023-05-05T12:10:35.072Z,102071.28
2023-05-05T12:17:18.688Z,102064.34
2023-05-05T12:24:01.114Z,102063.59
2023-05-05T12:30:43.361Z,102065.69
2023-05-05T12:37:27.587Z,102049.78
2023-05-05T12:44:10.082Z,102064.19
2023-05-05T12:50:52.415Z,102054.38
2023-05-05T12:57:34.670Z,102056.00
2023-05-05T13:04:18.524Z,102047.06
2023-05-05T13:11:00.718Z,102055.31
2023-05-05T13:17:42.897Z,102048.50
2023-05-05T13:24:38.068Z,102045.34
2023-05-05T13:31:24.817Z,102037.19
2023-05-05T13:38:06.990Z,102033.88
2023-05-05T13:44:49.516Z,102029.47
2023-05-05T13:51:31.686Z,102028.31
2023-05-05T13:58:13.955Z,102004.94
2023-05-05T14:04:56.418Z,102015.88
2023-05-05T14:11:38.579Z,102026.28
2023-05-05T14:18:20.971Z,102037.22
2023-05-05T14:25:04.566Z,102019.84
2023-05-05T14:31:47.072Z,102019.84
2023-05-05T14:38:29.949Z,102028.00
2023-05-05T14:45:12.251Z,102020.72
2023-05-05T14:51:55.506Z,102017.63
2023-05-05T14:58:38.769Z,102021.03
2023-05-05T15:05:21.410Z,102012.59
2023-05-05T15:12:03.905Z,102015.59
2023-05-05T15:18:46.097Z,102016.56
2023-05-05T15:25:28.439Z,102016.56
2023-05-05T15:32:11.538Z,102014.03
2023-05-05T15:38:53.639Z,102006.47
2023-05-05T15:45:36.182Z,102011.31
2023-05-05T15:52:18.715Z,102003.59
2023-05-05T15:59:01.678Z,102009.03
2023-05-05T16:05:44.051Z,102010.03
2023-05-05T16:12:26.274Z,102009.22
2023-05-05T16:19:08.688Z,102006.53
2023-05-05T16:25:50.952Z,101999.50
2023-05-05T16:32:33.275Z,101998.63
2023-05-05T16:39:15.539Z,101998.59
2023-05-05T16:45:57.854Z,101989.78
2023-05-05T16:52:40.102Z,101980.91
2023-05-05T16:59:22.430Z,101973.78
2023-05-05T17:06:05.724Z,101985.94
2023-05-05T17:12:47.906Z,101985.75
2023-05-05T17:19:30.149Z,101993.50
2023-05-05T17:26:12.290Z,101998.63
2023-05-05T17:32:54.523Z,101991.34
2023-05-05T17:39:36.803Z,101992.13
2023-05-05T17:46:19.132Z,101993.72
2023-05-05T17:53:01.419Z,101982.22
2023-05-05T17:59:44.583Z,102005.66
2023-05-05T18:06:27.589Z,102005.50
2023-05-05T18:13:10.086Z,102012.28
2023-05-05T18:19:52.281Z,102007.63
2023-05-05T18:26:34.757Z,102006.53
2023-05-05T18:33:16.868Z,102005.44
2023-05-05T18:39:58.990Z,102013.97
2023-05-05T18:46:43.053Z,102013.88
2023-05-05T18:53:25.745Z,102011.06
2023-05-05T19:00:09.885Z,101996.94
2023-05-05T19:06:52.591Z,102002.84
2023-05-05T19:13:35.113Z,102003.63
2023-05-05T19:20:17.214Z,101986.09
2023-05-05T19:26:59.334Z,101994.75
2023-05-05T19:33:45.510Z,101992.00
2023-05-05T19:40:28.772Z,102005.03
2023-05-05T19:47:11.288Z,102004.13
2023-05-05T19:53:53.455Z,101997.06
2023-05-05T20:00:36.171Z,102000.50
2023-05-05T20:07:19.074Z,101997.81
2023-05-05T20:14:01.430Z,101999.50
2023-05-05T20:20:43.583Z,102008.94
2023-05-05T20:27:26.744Z,102008.91
2023-05-05T20:34:10.924Z,102001.78
2023-05-05T20:40:53.061Z,101999.88
2023-05-05T20:47:35.757Z,101992.72
2023-05-05T20:54:17.908Z,101983.91
2023-05-05T21:01:00.164Z,101982.91
2023-05-05T21:07:43.013Z,101979.28
2023-05-05T21:14:25.137Z,101980.88
2023-05-05T21:21:07.341Z,101985.19
2023-05-05T21:27:49.772Z,101979.84
2023-05-05T21:34:31.938Z,101986.81
2023-05-05T21:41:14.264Z,101991.94
2023-05-05T21:47:56.559Z,101983.97
2023-05-05T21:54:38.738Z,101981.28
2023-05-05T22:01:21.095Z,101959.38
2023-05-05T22:08:03.679Z,101967.97
2023-05-05T22:14:45.931Z,101968.66
2023-05-05T22:21:28.086Z,101968.41
2023-05-05T22:28:11.524Z,101980.44
2023-05-05T22:34:53.689Z,101988.97
2023-05-05T22:41:35.910Z,101985.31
2023-05-05T22:48:18.040Z,101976.41
2023-05-05T22:55:00.287Z,101963.28
2023-05-05T23:01:42.451Z,101955.31
2023-05-05T23:08:24.855Z,101947.41
2023-05-05T23:15:08.247Z,101940.34
2023-05-05T23:21:53.610Z,101944.28
2023-05-05T23:28:36.111Z,101932.72
2023-05-05T23:35:18.489Z,101937.78
2023-05-05T23:42:00.650Z,101931.50
2023-05-05T23:48:42.815Z,101933.19
2023-05-05T23:55:25.313Z,101932.38
